createdAt,value
2022-10-18T00:01:17.235Z,22.68
2022-10-18T00:03:45.868Z,22.64
2022-10-18T00:06:14.363Z,22.56
2022-10-18T00:08:45.205Z,22.50
2022-10-18T00:11:13.714Z,22.42
2022-10-18T00:13:42.165Z,22.37
2022-10-18T00:16:16.725Z,22.34
2022-10-18T00:18:46.046Z,22.31
2022-10-18T00:21:17.800Z,22.23
2022-10-18T00:23:51.812Z,22.16
2022-10-18T00:26:26.510Z,22.10
2022-10-18T00:28:57.218Z,22.01
2022-10-18T00:31:34.227Z,21.91
2022-10-18T00:34:05.281Z,21.82
2022-10-18T00:36:35.615Z,21.74
2022-10-18T00:39:06.304Z,21.65
2022-10-18T00:41:36.925Z,21.56
2022-10-18T00:44:28.125Z,21.47
2022-10-18T00:47:03.795Z,21.37
2022-10-18T00:49:45.893Z,21.29
2022-10-18T00:52:22.702Z,21.21
2022-10-18T00:54:53.413Z,21.17
2022-10-18T00:57:22.209Z,21.10
2022-10-18T00:59:50.806Z,21.08
2022-10-18T01:02:20.120Z,21.02
2022-10-18T01:04:49.405Z,20.94
2022-10-18T01:07:46.667Z,20.86
2022-10-18T01:10:32.922Z,20.82
2022-10-18T01:13:10.519Z,20.73
2022-10-18T01:15:52.640Z,20.64
2022-10-18T01:18:35.625Z,20.55
2022-10-18T01:21:19.329Z,20.51
2022-10-18T01:24:08.551Z,20.43
2022-10-18T01:26:58.199Z,20.40
2022-10-18T01:30:01.592Z,20.34
2022-10-18T01:32:40.564Z,20.21
2022-10-18T01:35:15.598Z,20.14
2022-10-18T01:37:48.085Z,20.13
2022-10-18T01:40:21.234Z,20.07
2022-10-18T01:42:51.020Z,20.04
2022-10-18T01:45:23.104Z,20.00
2022-10-18T01:47:52.425Z,19.99
2022-10-18T01:50:31.538Z,19.94
2022-10-18T01:53:00.445Z,19.92
2022-10-18T01:55:50.685Z,19.88
2022-10-18T01:58:42.802Z,19.87
2022-10-18T02:01:30.999Z,19.84
2022-10-18T02:04:08.398Z,19.79
2022-10-18T02:06:46.210Z,19.77
2022-10-18T02:09:22.323Z,19.72
2022-10-18T02:11:55.484Z,19.62
2022-10-18T02:14:26.995Z,19.57
2022-10-18T02:17:00.113Z,19.51
2022-10-18T02:19:34.845Z,19.50
2022-10-18T02:22:03.959Z,19.47
2022-10-18T02:24:38.854Z,19.44
2022-10-18T02:27:07.452Z,19.43
2022-10-18T02:29:36.964Z,19.42
2022-10-18T02:32:31.484Z,19.39
2022-10-18T02:35:08.760Z,19.34
2022-10-18T02:37:41.067Z,19.30
2022-10-18T02:40:11.692Z,19.24
2022-10-18T02:42:51.315Z,19.18
2022-10-18T02:45:19.784Z,19.13
2022-10-18T02:47:48.249Z,19.10
2022-10-18T02:50:16.603Z,19.07
2022-10-18T02:52:44.934Z,19.06
2022-10-18T02:55:13.260Z,19.05
2022-10-18T02:57:41.586Z,19.05
2022-10-18T03:00:10.680Z,19.02
2022-10-18T03:02:39.005Z,18.98
2022-10-18T03:05:07.650Z,18.93
2022-10-18T03:07:36.106Z,18.90
2022-10-18T03:10:04.564Z,18.88
2022-10-18T03:12:32.923Z,18.84
2022-10-18T03:15:01.240Z,18.81
2022-10-18T03:17:29.929Z,18.78
2022-10-18T03:19:58.465Z,18.75
2022-10-18T03:25:02.811Z,18.64
2022-10-18T03:27:33.803Z,18.61
2022-10-18T03:30:02.359Z,18.58
2022-10-18T03:32:31.146Z,18.54
2022-10-18T03:35:01.346Z,18.52
2022-10-18T03:37:29.685Z,18.48
2022-10-18T03:39:58.039Z,18.45
2022-10-18T03:42:26.434Z,18.42
2022-10-18T03:44:54.945Z,18.38
2022-10-18T03:47:26.358Z,18.33
2022-10-18T03:49:57.133Z,18.28
2022-10-18T03:52:26.040Z,18.23
2022-10-18T03:54:54.465Z,18.19
2022-10-18T03:57:22.784Z,18.17
2022-10-18T03:59:51.144Z,18.15
2022-10-18T04:02:19.646Z,18.11
2022-10-18T04:04:48.083Z,18.06
2022-10-18T04:07:16.767Z,18.02
2022-10-18T04:09:45.246Z,17.99
2022-10-18T04:12:13.605Z,17.97
2022-10-18T04:14:42.027Z,17.92
2022-10-18T04:17:10.443Z,17.89
2022-10-18T04:19:38.742Z,17.88
2022-10-18T04:22:07.126Z,17.83
2022-10-18T04:24:35.475Z,17.79
2022-10-18T04:27:03.803Z,17.75
2022-10-18T04:29:32.126Z,17.70
2022-10-18T04:32:03.959Z,17.63
2022-10-18T04:34:34.737Z,17.57
2022-10-18T04:37:03.095Z,17.54
2022-10-18T04:39:31.531Z,17.51
2022-10-18T04:42:02.415Z,17.46
2022-10-18T04:44:30.753Z,17.43
2022-10-18T04:46:59.145Z,17.41
2022-10-18T04:49:27.410Z,17.37
2022-10-18T04:51:55.662Z,17.33
2022-10-18T04:54:26.570Z,17.29
2022-10-18T04:56:57.190Z,17.22
2022-10-18T04:59:25.561Z,17.19
2022-10-18T05:01:53.995Z,17.16
2022-10-18T05:04:22.485Z,17.12
2022-10-18T05:06:50.950Z,17.07
2022-10-18T05:09:19.325Z,17.05
2022-10-18T05:11:47.545Z,17.04
2022-10-18T05:14:15.795Z,17.01
2022-10-18T05:16:44.120Z,16.99
2022-10-18T05:19:12.600Z,16.99
2022-10-18T05:21:41.071Z,16.99
2022-10-18T05:24:11.334Z,16.97
2022-10-18T05:26:39.638Z,16.93
2022-10-18T05:29:08.056Z,16.91
2022-10-18T05:31:36.449Z,16.89
2022-10-18T05:34:05.273Z,16.86
2022-10-18T05:36:36.340Z,16.84
2022-10-18T05:39:06.228Z,16.85
2022-10-18T05:41:34.517Z,16.85
2022-10-18T05:44:07.007Z,16.85
2022-10-18T05:46:35.583Z,16.85
2022-10-18T05:49:03.925Z,16.86
2022-10-18T05:51:32.385Z,16.86
2022-10-18T05:54:04.757Z,16.89
2022-10-18T05:56:33.042Z,16.89
2022-10-18T05:59:01.241Z,16.88
2022-10-18T06:01:29.423Z,16.88
2022-10-18T06:03:57.718Z,16.85
2022-10-18T06:06:25.935Z,16.87
2022-10-18T06:08:54.208Z,16.86
2022-10-18T06:11:22.985Z,16.86
2022-10-18T06:13:53.109Z,16.85
2022-10-18T06:16:26.194Z,16.84
2022-10-18T06:18:58.680Z,16.83
2022-10-18T06:21:27.480Z,16.84
2022-10-18T06:23:58.031Z,16.83
2022-10-18T06:26:28.083Z,16.83
2022-10-18T06:28:56.986Z,16.80
2022-10-18T06:31:25.415Z,16.77
2022-10-18T06:33:56.866Z,16.76
2022-10-18T06:36:25.276Z,16.74
2022-10-18T06:38:53.790Z,16.73
2022-10-18T06:41:22.881Z,16.71
2022-10-18T06:43:52.758Z,16.69
2022-10-18T06:46:21.520Z,16.67
2022-10-18T06:48:49.883Z,16.67
2022-10-18T06:51:19.219Z,16.67
2022-10-18T06:53:59.669Z,16.65
2022-10-18T06:56:36.927Z,16.65
2022-10-18T06:59:05.997Z,16.62
2022-10-18T07:01:34.429Z,16.59
2022-10-18T07:04:02.830Z,16.58
2022-10-18T07:06:31.161Z,16.54
2022-10-18T07:08:59.635Z,16.50
2022-10-18T07:11:28.768Z,16.48
2022-10-18T07:14:05.616Z,16.44
2022-10-18T07:16:37.875Z,16.43
2022-10-18T07:19:06.175Z,16.39
2022-10-18T07:21:34.531Z,16.35
2022-10-18T07:24:02.743Z,16.33
2022-10-18T07:26:34.164Z,16.30
2022-10-18T07:29:08.020Z,16.26
2022-10-18T07:31:39.629Z,16.25
2022-10-18T07:34:10.280Z,16.26
2022-10-18T07:36:38.599Z,16.25
2022-10-18T07:39:07.585Z,16.26
2022-10-18T07:41:40.334Z,16.26
2022-10-18T07:44:08.674Z,16.26
2022-10-18T07:46:39.830Z,16.22
2022-10-18T07:49:08.055Z,16.20
2022-10-18T07:51:37.021Z,16.20
2022-10-18T07:54:05.350Z,16.18
2022-10-18T07:56:33.719Z,16.17
2022-10-18T07:59:02.046Z,16.13
2022-10-18T08:01:30.554Z,16.11
2022-10-18T08:04:04.562Z,16.07
2022-10-18T08:06:35.510Z,16.03
2022-10-18T08:09:04.121Z,16.00
2022-10-18T08:11:32.642Z,15.97
2022-10-18T08:14:01.074Z,15.96
2022-10-18T08:19:05.507Z,15.92
2022-10-18T08:21:34.025Z,15.90
2022-10-18T08:24:02.352Z,15.91
2022-10-18T08:26:32.767Z,15.88
2022-10-18T08:29:21.209Z,15.85
2022-10-18T08:31:51.886Z,15.83
2022-10-18T08:34:20.440Z,15.82
2022-10-18T08:36:48.744Z,15.78
2022-10-18T08:39:17.075Z,15.77
2022-10-18T08:42:13.077Z,15.79
2022-10-18T08:44:48.422Z,15.80
2022-10-18T08:47:32.691Z,15.77
2022-10-18T08:50:06.016Z,15.74
2022-10-18T08:53:06.658Z,15.69
2022-10-18T08:55:43.639Z,15.68
2022-10-18T08:58:20.280Z,15.67
2022-10-18T09:01:19.005Z,15.66
2022-10-18T09:04:09.080Z,15.60
2022-10-18T09:07:01.881Z,15.58
2022-10-18T09:09:49.205Z,15.57
2022-10-18T09:12:53.270Z,15.55
2022-10-18T09:15:50.930Z,15.51
2022-10-18T09:18:34.175Z,15.48
2022-10-18T09:21:24.865Z,15.47
2022-10-18T09:24:26.260Z,15.47
2022-10-18T09:27:02.479Z,15.47
2022-10-18T09:30:14.704Z,15.45
2022-10-18T09:33:00.918Z,15.43
2022-10-18T09:35:31.479Z,15.41
2022-10-18T09:38:06.951Z,15.38
2022-10-18T09:40:40.140Z,15.34
2022-10-18T09:43:16.439Z,15.31
2022-10-18T09:45:49.064Z,15.29
2022-10-18T09:48:20.425Z,15.26
2022-10-18T09:51:00.271Z,15.24
2022-10-18T09:53:48.930Z,15.21
2022-10-18T09:56:23.792Z,15.21
2022-10-18T09:58:52.556Z,15.19
2022-10-18T10:01:26.844Z,15.17
2022-10-18T10:03:55.319Z,15.15
2022-10-18T10:06:35.585Z,15.16
2022-10-18T10:09:17.723Z,15.11
2022-10-18T10:11:51.281Z,15.05
2022-10-18T10:14:24.760Z,15.04
2022-10-18T10:17:00.871Z,15.02
2022-10-18T10:19:38.803Z,14.99
2022-10-18T10:22:15.641Z,14.96
2022-10-18T10:24:54.839Z,14.95
2022-10-18T10:27:44.129Z,14.92
2022-10-18T10:30:31.600Z,14.89
2022-10-18T10:32:59.961Z,14.87
2022-10-18T10:35:53.123Z,14.84
2022-10-18T10:38:30.515Z,14.82
2022-10-18T10:41:00.276Z,14.80
2022-10-18T10:43:39.230Z,14.78
2022-10-18T10:46:10.696Z,14.77
2022-10-18T10:49:20.781Z,14.73
2022-10-18T10:51:45.199Z,14.69
2022-10-18T10:54:15.018Z,14.66
2022-10-18T10:57:04.064Z,14.68
2022-10-18T10:59:54.007Z,14.65
2022-10-18T11:02:24.105Z,14.59
2022-10-18T11:04:54.964Z,14.55
2022-10-18T11:07:50.645Z,14.52
2022-10-18T11:10:23.145Z,14.48
2022-10-18T11:13:04.914Z,14.46
2022-10-18T11:15:37.348Z,14.49
2022-10-18T11:18:29.560Z,14.51
2022-10-18T11:21:03.285Z,14.53
2022-10-18T11:23:33.883Z,14.53
2022-10-18T11:26:13.403Z,14.55
2022-10-18T11:29:10.660Z,14.55
2022-10-18T11:32:05.715Z,14.54
2022-10-18T11:34:52.118Z,14.50
2022-10-18T11:37:38.757Z,14.50
2022-10-18T11:40:46.809Z,14.48
2022-10-18T11:43:24.738Z,14.46
2022-10-18T11:46:06.443Z,14.42
2022-10-18T11:48:47.623Z,14.38
2022-10-18T11:51:56.384Z,14.35
2022-10-18T11:54:54.520Z,14.36
2022-10-18T11:57:32.050Z,14.36
2022-10-18T12:00:35.646Z,14.35
2022-10-18T12:03:09.514Z,14.35
2022-10-18T12:05:40.600Z,14.34
2022-10-18T12:08:40.162Z,14.35
2022-10-18T12:11:17.363Z,14.33
2022-10-18T12:14:09.291Z,14.31
2022-10-18T12:16:51.457Z,14.30
2022-10-18T12:19:27.009Z,14.29
2022-10-18T12:22:04.114Z,14.27
2022-10-18T12:24:34.842Z,14.25
2022-10-18T12:27:04.280Z,14.25
2022-10-18T12:29:55.702Z,14.25
2022-10-18T12:32:31.197Z,14.22
2022-10-18T12:35:12.924Z,14.20
2022-10-18T12:37:50.004Z,14.19
2022-10-18T12:40:31.320Z,14.17
2022-10-18T12:42:59.645Z,14.15
2022-10-18T12:45:35.098Z,14.12
2022-10-18T12:48:29.719Z,14.07
2022-10-18T12:51:07.320Z,14.01
2022-10-18T12:53:36.600Z,13.98
2022-10-18T12:56:29.883Z,13.97
2022-10-18T12:59:16.753Z,13.96
2022-10-18T13:01:54.106Z,13.93
2022-10-18T13:04:39.320Z,13.93
2022-10-18T13:07:09.240Z,13.91
2022-10-18T13:09:42.953Z,13.89
2022-10-18T13:12:11.218Z,13.86
2022-10-18T13:15:24.913Z,13.81
2022-10-18T13:18:21.784Z,13.79
2022-10-18T13:21:11.480Z,13.78
2022-10-18T13:23:58.135Z,13.78
2022-10-18T13:27:17.475Z,13.73
2022-10-18T13:30:15.663Z,13.71
2022-10-18T13:33:24.279Z,13.67
2022-10-18T13:36:12.135Z,13.63
2022-10-18T13:39:05.885Z,13.61
2022-10-18T13:41:50.699Z,13.60
2022-10-18T13:44:33.514Z,13.60
2022-10-18T13:47:01.785Z,13.58
2022-10-18T13:50:04.015Z,13.56
2022-10-18T13:52:56.305Z,13.57
2022-10-18T13:55:56.179Z,13.57
2022-10-18T13:59:13.754Z,13.55
2022-10-18T14:02:11.505Z,13.52
2022-10-18T14:05:10.853Z,13.49
2022-10-18T14:07:47.304Z,13.50
2022-10-18T14:11:02.067Z,13.51
2022-10-18T14:14:14.826Z,13.50
2022-10-18T14:16:58.369Z,13.49
2022-10-18T14:19:57.886Z,13.45
2022-10-18T14:22:41.360Z,13.45
2022-10-18T14:25:29.154Z,13.44
2022-10-18T14:28:18.459Z,13.43
2022-10-18T14:31:12.984Z,13.41
2022-10-18T14:33:48.430Z,13.39
2022-10-18T14:36:27.948Z,13.39
2022-10-18T14:39:05.080Z,13.38
2022-10-18T14:41:39.350Z,13.38
2022-10-18T14:44:33.899Z,13.39
2022-10-18T14:47:16.581Z,13.40
2022-10-18T14:49:46.169Z,13.41
2022-10-18T14:52:18.555Z,13.43
2022-10-18T14:54:47.646Z,13.44
2022-10-18T14:57:24.455Z,13.45
2022-10-18T14:59:59.320Z,13.48
2022-10-18T15:02:30.142Z,13.49
2022-10-18T15:05:11.195Z,13.51
2022-10-18T15:07:39.844Z,13.55
2022-10-18T15:10:15.735Z,13.58
2022-10-18T15:13:08.293Z,13.61
2022-10-18T15:15:35.995Z,13.62
2022-10-18T15:18:06.281Z,13.64
2022-10-18T15:20:43.313Z,13.68
2022-10-18T15:23:24.731Z,13.72
2022-10-18T15:26:00.824Z,13.77
2022-10-18T15:28:40.329Z,13.81
2022-10-18T15:31:23.159Z,13.84
2022-10-18T15:33:51.648Z,13.87
2022-10-18T15:36:33.870Z,13.92
2022-10-18T15:39:20.449Z,13.95
2022-10-18T15:41:55.320Z,13.96
2022-10-18T15:44:55.145Z,14.00
2022-10-18T15:47:26.154Z,14.05
2022-10-18T15:49:57.505Z,14.09
2022-10-18T15:52:41.516Z,14.14
2022-10-18T15:55:33.488Z,14.18
2022-10-18T15:58:41.684Z,14.22
2022-10-18T16:01:21.248Z,14.27
2022-10-18T16:03:50.875Z,14.32
2022-10-18T16:06:19.527Z,14.40
2022-10-18T16:08:50.529Z,14.46
2022-10-18T16:11:24.595Z,14.48
2022-10-18T16:13:57.835Z,14.55
2022-10-18T16:16:30.199Z,14.64
2022-10-18T16:18:59.159Z,14.75
2022-10-18T16:21:35.802Z,14.83
2022-10-18T16:24:04.919Z,14.94
2022-10-18T16:26:34.200Z,15.05
2022-10-18T16:29:03.022Z,15.18
2022-10-18T16:31:36.124Z,15.30
2022-10-18T16:34:05.247Z,15.42
2022-10-18T16:36:34.998Z,15.54
2022-10-18T16:39:08.602Z,15.65
2022-10-18T16:41:36.921Z,15.78
2022-10-18T16:44:05.713Z,15.88
2022-10-18T16:46:36.065Z,15.99
2022-10-18T16:49:05.715Z,16.09
2022-10-18T16:51:34.039Z,16.19
2022-10-18T16:54:04.764Z,16.28
2022-10-18T16:56:34.840Z,16.35
2022-10-18T16:59:03.486Z,16.45
2022-10-18T17:01:32.029Z,16.53
2022-10-18T17:04:00.425Z,16.64
2022-10-18T17:06:31.466Z,16.73
2022-10-18T17:09:00.934Z,16.82
2022-10-18T17:11:30.040Z,16.90
2022-10-18T17:13:58.408Z,16.98
2022-10-18T17:19:16.564Z,17.09
2022-10-18T17:21:44.845Z,17.14
2022-10-18T17:24:13.238Z,17.19
2022-10-18T17:26:41.538Z,17.27
2022-10-18T17:29:10.965Z,17.34
2022-10-18T17:31:39.416Z,17.41
2022-10-18T17:34:09.271Z,17.49
2022-10-18T17:36:37.720Z,17.53
2022-10-18T17:39:06.810Z,17.55
2022-10-18T17:41:35.160Z,17.56
2022-10-18T17:44:05.562Z,17.60
2022-10-18T17:46:33.889Z,17.66
2022-10-18T17:49:02.157Z,17.74
2022-10-18T17:51:30.525Z,17.82
2022-10-18T17:53:58.864Z,17.89
2022-10-18T17:56:31.959Z,17.98
2022-10-18T17:59:00.763Z,18.09
2022-10-18T18:01:29.443Z,18.12
2022-10-18T18:04:03.177Z,18.13
2022-10-18T18:06:35.125Z,18.20
2022-10-18T18:09:10.183Z,18.27
2022-10-18T18:11:40.975Z,18.36
2022-10-18T18:14:10.839Z,18.45
2022-10-18T18:16:41.554Z,18.56
2022-10-18T18:19:13.241Z,18.68
2022-10-18T18:21:42.485Z,18.81
2022-10-18T18:24:11.804Z,18.91
2022-10-18T18:26:41.320Z,19.02
2022-10-18T18:29:09.671Z,19.14
2022-10-18T18:31:40.063Z,19.27
2022-10-18T18:34:11.425Z,19.35
2022-10-18T18:36:40.246Z,19.43
2022-10-18T18:39:10.043Z,19.54
2022-10-18T18:41:39.480Z,19.67
2022-10-18T18:44:08.136Z,19.78
2022-10-18T18:46:39.478Z,19.86
2022-10-18T18:49:09.393Z,19.95
2022-10-18T18:51:41.235Z,20.03
2022-10-18T18:54:11.694Z,20.10
2022-10-18T18:56:40.129Z,20.14
2022-10-18T18:59:08.919Z,20.19
2022-10-18T19:01:39.176Z,20.22
2022-10-18T19:04:10.016Z,20.27
2022-10-18T19:06:41.246Z,20.28
2022-10-18T19:09:21.553Z,20.32
2022-10-18T19:11:54.587Z,20.42
2022-10-18T19:14:25.770Z,20.49
2022-10-18T19:16:56.385Z,20.54
2022-10-18T19:19:29.244Z,20.63
2022-10-18T19:22:00.115Z,20.70
2022-10-18T19:24:33.405Z,20.77
2022-10-18T19:27:05.084Z,20.84
2022-10-18T19:29:38.369Z,20.94
2022-10-18T19:32:09.626Z,21.05
2022-10-18T19:34:38.185Z,21.17
2022-10-18T19:37:06.460Z,21.29
2022-10-18T19:39:36.085Z,21.41
2022-10-18T19:42:08.035Z,21.53
2022-10-18T19:44:37.985Z,21.69
2022-10-18T19:47:13.026Z,21.78
2022-10-18T19:49:43.560Z,21.92
2022-10-18T19:52:13.233Z,22.02
2022-10-18T19:54:41.621Z,22.13
2022-10-18T19:57:10.015Z,22.30
2022-10-18T19:59:38.523Z,22.46
2022-10-18T20:02:06.820Z,22.65
2022-10-18T20:04:35.994Z,22.90
2022-10-18T20:07:04.451Z,23.16
2022-10-18T20:09:32.849Z,23.45
2022-10-18T20:12:01.226Z,23.70
2022-10-18T20:14:29.747Z,23.93
2022-10-18T20:16:58.204Z,24.00
2022-10-18T20:19:26.520Z,24.08
2022-10-18T20:21:58.525Z,24.12
2022-10-18T20:24:26.846Z,24.10
2022-10-18T20:26:55.133Z,24.04
2022-10-18T20:29:26.193Z,24.09
2022-10-18T20:31:56.599Z,24.23
2022-10-18T20:34:27.583Z,24.35
2022-10-18T20:36:56.883Z,24.48
2022-10-18T20:39:25.450Z,24.69
2022-10-18T20:41:53.729Z,24.80
2022-10-18T20:44:23.544Z,24.88
2022-10-18T20:46:51.800Z,25.06
2022-10-18T20:49:20.600Z,25.22
2022-10-18T20:51:48.867Z,25.27
2022-10-18T20:54:17.242Z,25.31
2022-10-18T20:56:45.715Z,25.31
2022-10-18T20:59:14.682Z,25.40
2022-10-18T21:01:43.073Z,25.51
2022-10-18T21:04:12.275Z,25.57
2022-10-18T21:06:43.989Z,25.57
2022-10-18T21:09:18.985Z,25.56
2022-10-18T21:11:50.397Z,25.50
2022-10-18T21:14:21.719Z,25.41
2022-10-18T21:16:51.343Z,25.44
2022-10-18T21:19:27.799Z,25.70
2022-10-18T21:21:58.655Z,25.88
2022-10-18T21:24:27.611Z,26.03
2022-10-18T21:26:56.635Z,26.27
2022-10-18T21:29:28.595Z,26.49
2022-10-18T21:32:00.283Z,26.83
2022-10-18T21:34:28.599Z,27.16
2022-10-18T21:36:56.923Z,27.33
2022-10-18T21:39:25.749Z,27.51
2022-10-18T21:41:54.148Z,27.72
2022-10-18T21:44:22.691Z,27.94
2022-10-18T21:46:51.645Z,28.23
2022-10-18T21:49:20.075Z,28.46
2022-10-18T21:51:48.445Z,28.51
2022-10-18T21:54:17.720Z,28.53
2022-10-18T21:56:46.144Z,28.32
2022-10-18T21:59:15.191Z,28.34
2022-10-18T22:01:45.236Z,28.45
2022-10-18T22:04:24.764Z,28.41
2022-10-18T22:06:53.248Z,28.48
2022-10-18T22:09:22.895Z,28.61
2022-10-18T22:11:54.206Z,28.78
2022-10-18T22:14:22.919Z,28.92
2022-10-18T22:16:51.967Z,29.00
2022-10-18T22:19:20.540Z,29.10
2022-10-18T22:21:49.384Z,29.06
2022-10-18T22:24:17.828Z,29.08
2022-10-18T22:26:47.834Z,29.09
2022-10-18T22:29:19.333Z,29.03
2022-10-18T22:31:53.670Z,28.94
2022-10-18T22:34:27.163Z,28.96
2022-10-18T22:36:56.008Z,28.96
2022-10-18T22:39:25.559Z,28.99
2022-10-18T22:41:57.238Z,29.00
2022-10-18T22:44:26.322Z,29.06
2022-10-18T22:46:54.678Z,29.03
2022-10-18T22:49:22.970Z,29.01
2022-10-18T22:51:51.229Z,29.00
2022-10-18T22:54:19.641Z,28.92
2022-10-18T22:56:48.024Z,28.75
2022-10-18T22:59:16.310Z,28.57
2022-10-18T23:01:44.550Z,28.38
2022-10-18T23:04:12.858Z,28.21
2022-10-18T23:06:41.794Z,27.96
2022-10-18T23:09:12.258Z,27.75
2022-10-18T23:11:40.613Z,27.55
2022-10-18T23:14:08.935Z,27.35
2022-10-18T23:16:37.325Z,27.20
2022-10-18T23:19:06.149Z,27.04
2022-10-18T23:21:35.966Z,26.92
2022-10-18T23:24:04.435Z,26.84
2022-10-18T23:26:32.763Z,26.77
2022-10-18T23:29:01.562Z,26.71
2022-10-18T23:31:32.621Z,26.66
2022-10-18T23:34:03.953Z,26.61
2022-10-18T23:36:33.795Z,26.54
2022-10-18T23:39:02.685Z,26.45
2022-10-18T23:41:31.471Z,26.42
2022-10-18T23:43:59.923Z,26.42
2022-10-18T23:46:28.710Z,26.43
2022-10-18T23:48:57.045Z,26.44
2022-10-18T23:51:25.285Z,26.42
2022-10-18T23:53:53.550Z,26.40
2022-10-18T23:56:24.717Z,26.38
2022-10-18T23:58:53.024Z,26.37
